createdAt,value
2018-06-29T00:00:40.105Z,19.72
2018-06-29T00:03:09.192Z,19.81
2018-06-29T00:05:38.264Z,19.83
2018-06-29T00:08:07.356Z,19.71
2018-06-29T00:10:36.424Z,19.53
2018-06-29T00:13:05.512Z,19.45
2018-06-29T00:15:34.580Z,19.41
2018-06-29T00:18:03.677Z,19.35
2018-06-29T00:20:32.744Z,19.40
2018-06-29T00:23:01.828Z,19.39
2018-06-29T00:25:30.899Z,19.48
2018-06-29T00:27:59.991Z,19.37
2018-06-29T00:30:29.060Z,19.29
2018-06-29T00:32:58.147Z,19.09
2018-06-29T00:35:27.212Z,19.02
2018-06-29T00:37:56.300Z,18.87
2018-06-29T00:40:25.368Z,18.85
2018-06-29T00:42:54.464Z,18.85
2018-06-29T00:45:23.538Z,18.99
2018-06-29T00:47:52.620Z,18.95
2018-06-29T00:50:21.691Z,18.94
2018-06-29T00:52:50.784Z,18.80
2018-06-29T00:55:19.943Z,18.80
2018-06-29T00:57:48.972Z,18.73
2018-06-29T01:00:18.045Z,18.62
2018-06-29T01:02:47.152Z,18.52
2018-06-29T01:05:16.233Z,18.46
2018-06-29T01:07:45.308Z,18.45
2018-06-29T01:10:14.404Z,18.42
2018-06-29T01:12:43.483Z,18.42
2018-06-29T01:15:12.576Z,18.43
2018-06-29T01:17:41.671Z,18.41
2018-06-29T01:20:10.761Z,18.43
2018-06-29T01:22:39.839Z,18.37
2018-06-29T01:25:09.171Z,18.28
2018-06-29T01:27:38.248Z,18.25
2018-06-29T01:30:07.354Z,18.31
2018-06-29T01:32:36.424Z,18.30
2018-06-29T01:35:05.525Z,18.29
2018-06-29T01:37:34.596Z,18.31
2018-06-29T01:40:03.702Z,18.32
2018-06-29T01:42:32.769Z,18.33
2018-06-29T01:45:01.862Z,18.34
2018-06-29T01:47:30.940Z,18.34
2018-06-29T01:50:00.042Z,18.19
2018-06-29T01:52:29.126Z,17.96
2018-06-29T01:54:58.224Z,17.78
2018-06-29T01:57:27.312Z,17.79
2018-06-29T01:59:56.408Z,17.80
2018-06-29T02:02:25.480Z,17.76
2018-06-29T02:04:54.576Z,17.66
2018-06-29T02:07:23.652Z,17.62
2018-06-29T02:09:52.748Z,17.49
2018-06-29T02:12:21.821Z,17.29
2018-06-29T02:14:50.928Z,17.33
2018-06-29T02:17:20.000Z,17.33
2018-06-29T02:19:49.099Z,17.44
2018-06-29T02:22:18.204Z,17.58
2018-06-29T02:24:47.273Z,17.65
2018-06-29T02:27:16.364Z,17.68
2018-06-29T02:29:45.431Z,17.66
2018-06-29T02:32:14.533Z,17.63
2018-06-29T02:34:43.616Z,17.55
2018-06-29T02:37:12.714Z,17.48
2018-06-29T02:39:41.855Z,17.51
2018-06-29T02:42:10.948Z,17.48
2018-06-29T02:44:40.016Z,17.36
2018-06-29T02:47:09.111Z,17.26
2018-06-29T02:49:38.192Z,17.21
2018-06-29T02:52:07.280Z,17.23
2018-06-29T02:54:36.402Z,17.30
2018-06-29T02:57:05.506Z,17.41
2018-06-29T02:59:35.016Z,17.53
2018-06-29T03:02:04.113Z,17.39
2018-06-29T03:04:33.188Z,17.36
2018-06-29T03:07:02.285Z,17.22
2018-06-29T03:09:31.361Z,17.30
2018-06-29T03:12:00.453Z,17.32
2018-06-29T03:14:29.529Z,17.22
2018-06-29T03:16:58.621Z,17.18
2018-06-29T03:19:27.692Z,16.96
2018-06-29T03:21:56.784Z,16.79
2018-06-29T03:24:25.848Z,16.67
2018-06-29T03:26:54.948Z,16.64
2018-06-29T03:29:24.017Z,16.48
2018-06-29T03:31:53.125Z,16.57
2018-06-29T03:34:22.207Z,16.70
2018-06-29T03:36:51.307Z,16.76
2018-06-29T03:39:20.387Z,16.80
2018-06-29T03:41:49.472Z,16.82
2018-06-29T03:44:18.563Z,16.92
2018-06-29T03:46:47.647Z,17.03
2018-06-29T03:49:16.731Z,17.05
2018-06-29T03:51:45.808Z,17.07
2018-06-29T03:54:14.913Z,17.06
2018-06-29T03:56:44.021Z,17.20
2018-06-29T03:59:13.126Z,17.26
2018-06-29T04:01:42.207Z,17.34
2018-06-29T04:04:11.316Z,17.35
2018-06-29T04:06:40.396Z,17.41
2018-06-29T04:09:11.099Z,17.38
2018-06-29T04:11:40.410Z,17.43
2018-06-29T04:14:09.485Z,17.37
2018-06-29T04:16:38.776Z,17.30
2018-06-29T04:19:08.096Z,17.29
2018-06-29T04:21:37.187Z,17.23
2018-06-29T04:24:06.297Z,17.23
2018-06-29T04:26:35.504Z,17.22
2018-06-29T04:29:04.493Z,17.28
2018-06-29T04:31:33.577Z,17.39
2018-06-29T04:34:02.683Z,17.52
2018-06-29T04:36:31.759Z,17.72
2018-06-29T04:39:00.870Z,18.00
2018-06-29T04:41:29.946Z,18.19
2018-06-29T04:43:59.076Z,18.40
2018-06-29T04:46:28.165Z,18.63
2018-06-29T04:48:57.245Z,18.81
2018-06-29T04:51:26.357Z,18.91
2018-06-29T04:53:55.444Z,19.06
2018-06-29T04:56:24.573Z,19.20
2018-06-29T04:58:53.668Z,19.19
2018-06-29T05:01:22.781Z,19.24
2018-06-29T05:03:52.183Z,19.46
2018-06-29T05:06:21.301Z,19.66
2018-06-29T05:08:50.472Z,19.62
2018-06-29T05:11:19.575Z,19.72
2018-06-29T05:13:48.668Z,19.72
2018-06-29T05:16:17.773Z,19.77
2018-06-29T05:18:46.858Z,19.80
2018-06-29T05:21:15.976Z,19.77
2018-06-29T05:23:45.065Z,19.70
2018-06-29T05:26:14.181Z,19.55
2018-06-29T05:28:43.292Z,19.73
2018-06-29T05:31:12.388Z,19.74
2018-06-29T05:33:41.476Z,19.87
2018-06-29T05:36:10.589Z,20.09
2018-06-29T05:38:39.681Z,20.27
2018-06-29T05:41:08.792Z,20.49
2018-06-29T05:43:37.872Z,20.60
2018-06-29T05:46:06.991Z,20.80
2018-06-29T05:48:36.383Z,20.78
2018-06-29T05:51:05.495Z,20.84
2018-06-29T05:53:34.592Z,20.81
2018-06-29T05:56:03.729Z,20.99
2018-06-29T05:58:32.820Z,20.95
2018-06-29T06:01:01.950Z,20.94
2018-06-29T06:03:31.037Z,21.07
2018-06-29T06:06:00.124Z,20.87
2018-06-29T06:08:29.244Z,21.03
2018-06-29T06:10:58.325Z,21.38
2018-06-29T06:13:27.488Z,21.64
2018-06-29T06:15:58.822Z,21.79
2018-06-29T06:18:27.997Z,21.82
2018-06-29T06:20:57.084Z,21.95
2018-06-29T06:23:26.212Z,22.11
2018-06-29T06:25:55.313Z,22.25
2018-06-29T06:28:24.437Z,22.27
2018-06-29T06:30:53.508Z,22.26
2018-06-29T06:33:22.609Z,22.05
2018-06-29T06:35:51.697Z,22.21
2018-06-29T06:38:20.800Z,22.18
2018-06-29T06:40:49.868Z,22.25
2018-06-29T06:43:18.964Z,22.43
2018-06-29T06:45:48.053Z,22.53
2018-06-29T06:48:17.143Z,22.66
2018-06-29T06:50:46.224Z,22.77
2018-06-29T06:53:15.320Z,22.63
2018-06-29T06:55:44.421Z,22.56
2018-06-29T06:58:13.520Z,22.79
2018-06-29T07:00:42.613Z,22.92
2018-06-29T07:03:11.706Z,22.98
2018-06-29T07:05:40.776Z,23.08
2018-06-29T07:08:09.880Z,23.18
2018-06-29T07:10:38.956Z,23.13
2018-06-29T07:13:08.020Z,22.84
2018-06-29T07:15:37.112Z,22.94
2018-06-29T07:18:06.181Z,23.10
2018-06-29T07:20:35.276Z,23.30
2018-06-29T07:23:04.360Z,23.27
2018-06-29T07:25:33.453Z,23.33
2018-06-29T07:28:02.528Z,23.50
2018-06-29T07:30:31.631Z,23.56
2018-06-29T07:33:00.713Z,23.65
2018-06-29T07:35:29.808Z,23.71
2018-06-29T07:37:58.897Z,23.86
2018-06-29T07:40:27.996Z,24.09
2018-06-29T07:42:57.064Z,24.31
2018-06-29T07:45:26.204Z,24.25
2018-06-29T07:47:55.282Z,24.49
2018-06-29T07:50:24.396Z,24.59
2018-06-29T07:52:53.540Z,24.66
2018-06-29T07:55:22.608Z,24.68
2018-06-29T07:57:51.680Z,24.60
2018-06-29T08:00:20.816Z,24.52
2018-06-29T08:02:49.942Z,24.58
2018-06-29T08:05:18.988Z,24.60
2018-06-29T08:07:48.070Z,24.71
2018-06-29T08:10:17.209Z,24.75
2018-06-29T08:12:46.279Z,24.97
2018-06-29T08:15:15.352Z,25.11
2018-06-29T08:17:44.449Z,25.13
2018-06-29T08:20:13.580Z,25.27
2018-06-29T08:22:42.685Z,25.41
2018-06-29T08:25:14.136Z,25.55
2018-06-29T08:27:43.544Z,25.48
2018-06-29T08:30:13.640Z,25.42
2018-06-29T08:32:42.753Z,25.49
2018-06-29T08:35:11.940Z,25.65
2018-06-29T08:37:41.026Z,25.93
2018-06-29T08:40:10.532Z,26.24
2018-06-29T08:42:39.628Z,26.41
2018-06-29T08:45:09.538Z,26.22
2018-06-29T08:47:38.661Z,26.38
2018-06-29T08:50:07.733Z,26.66
2018-06-29T08:52:36.846Z,26.75
2018-06-29T08:55:06.052Z,26.76
2018-06-29T08:57:35.138Z,26.93
2018-06-29T09:00:06.391Z,26.91
2018-06-29T09:02:35.480Z,26.84
2018-06-29T09:05:05.075Z,26.84
2018-06-29T09:07:34.269Z,26.94
2018-06-29T09:10:03.981Z,26.98
2018-06-29T09:12:33.083Z,27.12
2018-06-29T09:15:02.161Z,27.15
2018-06-29T09:17:31.261Z,27.11
2018-06-29T09:20:00.353Z,27.36
2018-06-29T09:22:29.456Z,27.38
2018-06-29T09:24:58.538Z,27.39
2018-06-29T09:27:27.638Z,27.36
2018-06-29T09:29:56.742Z,27.37
2018-06-29T09:32:25.803Z,27.29
2018-06-29T09:34:54.883Z,27.45
2018-06-29T09:37:23.984Z,27.47
2018-06-29T09:39:53.059Z,27.41
2018-06-29T09:42:22.135Z,27.69
2018-06-29T09:44:51.236Z,27.83
2018-06-29T09:47:20.420Z,28.09
2018-06-29T09:49:49.517Z,28.04
2018-06-29T09:52:18.592Z,27.72
2018-06-29T09:54:47.725Z,27.61
2018-06-29T09:57:16.803Z,27.65
2018-06-29T09:59:46.320Z,27.62
2018-06-29T10:02:15.396Z,27.62
2018-06-29T10:04:44.580Z,27.67
2018-06-29T10:07:13.736Z,27.73
2018-06-29T10:09:42.837Z,27.87
2018-06-29T10:12:11.908Z,28.12
2018-06-29T10:14:41.110Z,28.42
2018-06-29T10:17:10.180Z,28.58
2018-06-29T10:19:39.369Z,28.67
2018-06-29T10:22:08.434Z,28.67
2018-06-29T10:24:37.468Z,28.50
2018-06-29T10:27:06.557Z,28.45
2018-06-29T10:29:35.676Z,28.56
2018-06-29T10:32:04.771Z,28.74
2018-06-29T10:34:33.875Z,28.56
2018-06-29T10:37:02.957Z,28.48
2018-06-29T10:39:32.052Z,28.41
2018-06-29T10:42:01.133Z,28.41
2018-06-29T10:44:30.253Z,28.31
2018-06-29T10:46:59.320Z,28.54
2018-06-29T10:49:28.407Z,28.75
2018-06-29T10:51:57.525Z,28.76
2018-06-29T10:54:26.780Z,28.89
2018-06-29T10:56:55.901Z,28.91
2018-06-29T10:59:26.058Z,28.92
2018-06-29T11:01:55.188Z,29.07
2018-06-29T11:04:24.270Z,29.04
2018-06-29T11:06:53.684Z,28.63
2018-06-29T11:09:22.766Z,28.89
2018-06-29T11:11:51.888Z,29.07
2018-06-29T11:14:20.968Z,29.03
2018-06-29T11:16:50.075Z,28.69
2018-06-29T11:19:19.158Z,28.58
2018-06-29T11:21:49.032Z,28.64
2018-06-29T11:24:18.124Z,28.77
2018-06-29T11:26:47.424Z,28.65
2018-06-29T11:29:16.800Z,28.54
2018-06-29T11:31:45.891Z,28.49
2018-06-29T11:34:15.084Z,28.41
2018-06-29T11:36:44.204Z,28.54
2018-06-29T11:39:15.032Z,28.69
2018-06-29T11:41:44.452Z,28.56
2018-06-29T11:44:13.979Z,28.37
2018-06-29T11:46:43.021Z,28.51
2018-06-29T11:49:12.092Z,28.59
2018-06-29T11:51:41.201Z,28.54
2018-06-29T11:54:10.306Z,28.63
2018-06-29T11:56:39.420Z,28.58
2018-06-29T11:59:08.508Z,28.65
2018-06-29T12:01:37.600Z,28.92
2018-06-29T12:04:06.684Z,29.00
2018-06-29T12:06:35.792Z,28.95
2018-06-29T12:09:07.568Z,28.92
2018-06-29T12:11:36.666Z,28.96
2018-06-29T12:14:05.772Z,28.91
2018-06-29T12:16:34.870Z,29.05
2018-06-29T12:19:03.944Z,28.99
2018-06-29T12:21:33.324Z,28.94
2018-06-29T12:24:02.911Z,28.92
2018-06-29T12:26:32.051Z,28.72
2018-06-29T12:29:01.334Z,28.69
2018-06-29T12:31:30.448Z,28.84
2018-06-29T12:33:59.551Z,29.05
2018-06-29T12:36:28.633Z,29.14
2018-06-29T12:38:57.739Z,29.01
2018-06-29T12:41:26.827Z,28.89
2018-06-29T12:43:55.944Z,29.00
2018-06-29T12:46:25.157Z,29.22
2018-06-29T12:48:54.769Z,29.48
2018-06-29T12:51:23.895Z,29.43
2018-06-29T12:53:52.949Z,29.31
2018-06-29T12:56:22.061Z,29.35
2018-06-29T12:58:51.366Z,29.45
2018-06-29T13:01:20.433Z,29.38
2018-06-29T13:03:49.564Z,29.56
2018-06-29T13:06:18.679Z,29.60
2018-06-29T13:08:48.060Z,29.54
2018-06-29T13:11:17.177Z,29.46
2018-06-29T13:13:46.821Z,29.35
2018-06-29T13:16:15.890Z,29.45
2018-06-29T13:18:44.988Z,29.52
2018-06-29T13:21:14.060Z,29.64
2018-06-29T13:23:43.172Z,29.61
2018-06-29T13:26:12.240Z,29.52
2018-06-29T13:28:41.530Z,29.40
2018-06-29T13:31:10.624Z,29.66
2018-06-29T13:33:39.752Z,29.86
2018-06-29T13:36:08.827Z,29.88
2018-06-29T13:38:38.596Z,29.84
2018-06-29T13:41:07.684Z,29.71
2018-06-29T13:43:36.867Z,29.71
2018-06-29T13:46:06.037Z,29.77
2018-06-29T13:48:35.152Z,29.69
2018-06-29T13:51:04.255Z,29.68
2018-06-29T13:53:33.356Z,29.56
2018-06-29T13:56:02.461Z,29.71
2018-06-29T13:58:31.653Z,29.80
2018-06-29T14:01:00.775Z,29.86
2018-06-29T14:03:30.868Z,29.79
2018-06-29T14:05:59.980Z,29.81
2018-06-29T14:08:29.076Z,29.87
2018-06-29T14:10:58.243Z,29.78
2018-06-29T14:13:27.345Z,29.90
2018-06-29T14:15:56.464Z,29.86
2018-06-29T14:18:25.546Z,29.66
2018-06-29T14:20:54.757Z,29.35
2018-06-29T14:23:23.857Z,29.25
2018-06-29T14:25:52.964Z,29.35
2018-06-29T14:28:22.058Z,29.44
2018-06-29T14:30:51.164Z,29.49
2018-06-29T14:33:20.272Z,29.42
2018-06-29T14:35:49.385Z,29.25
2018-06-29T14:38:18.473Z,29.35
2018-06-29T14:40:47.693Z,29.27
2018-06-29T14:43:16.765Z,29.26
2018-06-29T14:45:45.879Z,29.33
2018-06-29T14:48:15.013Z,29.13
2018-06-29T14:50:44.860Z,29.15
2018-06-29T14:53:13.995Z,29.07
2018-06-29T14:55:43.084Z,29.08
2018-06-29T14:58:12.180Z,29.13
2018-06-29T15:00:41.298Z,29.21
2018-06-29T15:03:10.397Z,29.09
2018-06-29T15:05:39.500Z,29.06
2018-06-29T15:08:08.615Z,28.91
2018-06-29T15:10:37.683Z,28.76
2018-06-29T15:13:07.198Z,28.78
2018-06-29T15:15:36.293Z,28.79
2018-06-29T15:18:06.237Z,28.81
2018-06-29T15:20:35.325Z,28.91
2018-06-29T15:23:04.428Z,29.09
2018-06-29T15:25:33.513Z,29.11
2018-06-29T15:28:02.617Z,29.09
2018-06-29T15:30:31.692Z,28.94
2018-06-29T15:33:00.850Z,28.90
2018-06-29T15:35:29.916Z,29.03
2018-06-29T15:37:59.012Z,28.77
2018-06-29T15:40:28.173Z,28.74
2018-06-29T15:42:57.265Z,28.66
2018-06-29T15:45:26.452Z,28.58
2018-06-29T15:47:55.479Z,28.52
2018-06-29T15:50:24.565Z,28.70
2018-06-29T15:52:53.710Z,28.69
2018-06-29T15:55:22.875Z,28.62
2018-06-29T15:57:52.109Z,28.65
2018-06-29T16:00:21.497Z,28.69
2018-06-29T16:02:50.960Z,28.78
2018-06-29T16:05:20.304Z,28.68
2018-06-29T16:07:49.469Z,28.58
2018-06-29T16:10:18.982Z,28.51
2018-06-29T16:12:48.148Z,28.59
2018-06-29T16:15:17.740Z,28.58
2018-06-29T16:17:46.895Z,28.59
2018-06-29T16:20:16.057Z,28.49
2018-06-29T16:22:45.221Z,28.54
2018-06-29T16:25:14.454Z,28.52
2018-06-29T16:27:43.643Z,28.51
2018-06-29T16:30:12.753Z,28.61
2018-06-29T16:32:41.852Z,28.56
2018-06-29T16:35:11.292Z,28.50
2018-06-29T16:37:40.389Z,28.46
2018-06-29T16:40:09.515Z,28.43
2018-06-29T16:42:38.609Z,28.39
2018-06-29T16:45:07.865Z,28.43
2018-06-29T16:47:36.952Z,28.31
2018-06-29T16:50:06.459Z,28.25
2018-06-29T16:52:35.552Z,28.32
2018-06-29T16:55:04.757Z,28.42
2018-06-29T16:57:33.837Z,28.41
2018-06-29T17:00:03.062Z,28.41
2018-06-29T17:02:32.192Z,28.24
2018-06-29T17:05:01.356Z,28.24
2018-06-29T17:07:30.503Z,28.18
2018-06-29T17:09:59.721Z,28.23
2018-06-29T17:12:28.933Z,28.27
2018-06-29T17:14:58.053Z,28.24
2018-06-29T17:17:27.134Z,28.27
2018-06-29T17:19:56.252Z,28.30
2018-06-29T17:22:25.327Z,28.20
2018-06-29T17:24:54.483Z,28.11
2018-06-29T17:27:23.529Z,28.06
2018-06-29T17:29:52.606Z,28.00
2018-06-29T17:32:21.708Z,28.04
2018-06-29T17:34:50.793Z,28.11
2018-06-29T17:37:19.902Z,27.97
2018-06-29T17:39:49.009Z,27.91
2018-06-29T17:42:18.114Z,28.00
2018-06-29T17:44:49.380Z,27.93
2018-06-29T17:47:19.309Z,27.86
2018-06-29T17:49:48.391Z,27.75
2018-06-29T17:52:17.500Z,27.69
2018-06-29T17:54:46.580Z,27.69
2018-06-29T17:57:15.721Z,27.55
2018-06-29T17:59:44.954Z,27.54
2018-06-29T18:02:14.091Z,27.50
2018-06-29T18:04:43.226Z,27.40
2018-06-29T18:07:12.498Z,27.32
2018-06-29T18:09:41.590Z,27.29
2018-06-29T18:12:10.733Z,27.22
2018-06-29T18:14:39.812Z,27.23
2018-06-29T18:17:08.943Z,27.26
2018-06-29T18:19:38.037Z,27.21
2018-06-29T18:22:07.165Z,27.17
2018-06-29T18:24:36.261Z,27.07
2018-06-29T18:27:05.756Z,27.04
2018-06-29T18:29:35.198Z,27.01
2018-06-29T18:32:04.249Z,26.97
2018-06-29T18:34:33.338Z,26.98
2018-06-29T18:37:02.520Z,26.98
2018-06-29T18:39:31.604Z,27.00
2018-06-29T18:42:00.703Z,27.00
2018-06-29T18:44:29.804Z,26.82
2018-06-29T18:46:58.896Z,26.73
2018-06-29T18:49:28.025Z,26.67
2018-06-29T18:51:57.143Z,26.64
2018-06-29T18:54:26.244Z,26.50
2018-06-29T18:56:55.407Z,26.34
2018-06-29T18:59:24.504Z,26.26
2018-06-29T19:01:54.449Z,26.13
2018-06-29T19:04:23.740Z,26.07
2018-06-29T19:06:52.824Z,26.08
2018-06-29T19:09:21.970Z,26.11
2018-06-29T19:11:51.036Z,26.08
2018-06-29T19:14:20.141Z,26.00
2018-06-29T19:16:49.245Z,25.91
2018-06-29T19:19:18.353Z,25.78
2018-06-29T19:21:47.440Z,25.69
2018-06-29T19:24:16.543Z,25.63
2018-06-29T19:26:45.633Z,25.65
2018-06-29T19:29:14.738Z,25.58
2018-06-29T19:31:43.821Z,25.64
2018-06-29T19:34:12.936Z,25.49
2018-06-29T19:36:42.021Z,25.40
2018-06-29T19:39:11.933Z,25.35
2018-06-29T19:41:41.864Z,25.28
2018-06-29T19:44:11.547Z,25.20
2018-06-29T19:46:40.792Z,25.19
2018-06-29T19:49:10.759Z,25.06
2018-06-29T19:51:39.893Z,24.96
2018-06-29T19:54:08.973Z,24.95
2018-06-29T19:56:38.197Z,24.96
2018-06-29T19:59:07.284Z,24.93
2018-06-29T20:01:36.413Z,24.81
2018-06-29T20:04:05.528Z,24.73
2018-06-29T20:06:34.645Z,24.70
2018-06-29T20:09:04.005Z,24.61
2018-06-29T20:11:33.120Z,24.66
2018-06-29T20:14:02.212Z,24.52
2018-06-29T20:16:31.324Z,24.49
2018-06-29T20:19:00.592Z,24.43
2018-06-29T20:21:29.724Z,24.31
2018-06-29T20:23:58.827Z,24.24
2018-06-29T20:26:27.944Z,24.09
2018-06-29T20:28:57.078Z,24.12
2018-06-29T20:31:26.188Z,24.13
2018-06-29T20:33:55.397Z,24.06
2018-06-29T20:36:24.513Z,23.96
2018-06-29T20:38:53.772Z,23.90
2018-06-29T20:41:22.752Z,23.89
2018-06-29T20:43:51.840Z,23.85
2018-06-29T20:46:21.121Z,23.79
2018-06-29T20:48:50.221Z,23.81
2018-06-29T20:51:19.344Z,23.71
2018-06-29T20:53:48.455Z,23.65
2018-06-29T20:56:17.577Z,23.55
2018-06-29T20:58:46.665Z,23.39
2018-06-29T21:01:15.752Z,23.36
2018-06-29T21:03:44.856Z,23.47
2018-06-29T21:06:13.943Z,23.42
2018-06-29T21:08:43.056Z,23.48
2018-06-29T21:11:12.244Z,23.31
2018-06-29T21:13:41.385Z,23.22
2018-06-29T21:16:10.488Z,23.30
2018-06-29T21:18:39.805Z,23.36
2018-06-29T21:21:08.895Z,23.25
2018-06-29T21:23:38.012Z,23.19
2018-06-29T21:26:07.175Z,23.23
2018-06-29T21:28:36.333Z,23.33
2018-06-29T21:31:05.429Z,23.37
2018-06-29T21:33:34.535Z,23.31
2018-06-29T21:36:03.611Z,23.23
2018-06-29T21:38:32.716Z,23.09
2018-06-29T21:41:01.797Z,22.99
2018-06-29T21:43:30.912Z,22.87
2018-06-29T21:45:59.996Z,22.77
2018-06-29T21:48:29.100Z,22.56
2018-06-29T21:50:58.235Z,22.33
2018-06-29T21:53:27.345Z,21.93
2018-06-29T21:55:56.464Z,21.65
2018-06-29T21:58:25.585Z,21.59
2018-06-29T22:00:54.897Z,21.58
2018-06-29T22:03:24.370Z,21.72
2018-06-29T22:05:53.464Z,21.78
2018-06-29T22:08:22.582Z,21.76
2018-06-29T22:10:51.676Z,21.71
2018-06-29T22:13:20.792Z,21.78
2018-06-29T22:15:49.909Z,21.81
2018-06-29T22:18:19.005Z,21.85
2018-06-29T22:20:48.188Z,21.88
2018-06-29T22:23:17.289Z,21.98
2018-06-29T22:25:46.404Z,22.07
2018-06-29T22:28:15.497Z,21.95
2018-06-29T22:30:44.620Z,21.96
2018-06-29T22:33:13.728Z,21.95
2018-06-29T22:35:42.844Z,21.81
2018-06-29T22:38:11.937Z,21.72
2018-06-29T22:40:41.039Z,21.62
2018-06-29T22:43:10.128Z,21.53
2018-06-29T22:45:39.245Z,21.46
2018-06-29T22:48:08.336Z,21.46
2018-06-29T22:50:37.461Z,21.51
2018-06-29T22:53:06.565Z,21.47
2018-06-29T22:55:35.680Z,21.45
2018-06-29T22:58:05.017Z,21.38
2018-06-29T23:00:34.149Z,21.39
2018-06-29T23:03:07.888Z,21.34
2018-06-29T23:05:37.090Z,21.26
2018-06-29T23:08:07.024Z,21.25
2018-06-29T23:10:36.133Z,21.23
2018-06-29T23:13:05.552Z,21.10
2018-06-29T23:15:34.646Z,21.14
2018-06-29T23:18:03.785Z,21.04
2018-06-29T23:20:32.879Z,21.04
2018-06-29T23:23:01.999Z,20.98
2018-06-29T23:25:31.104Z,21.02
2018-06-29T23:28:00.220Z,20.93
2018-06-29T23:30:29.321Z,20.91
2018-06-29T23:32:58.431Z,20.92
2018-06-29T23:35:27.528Z,20.87
2018-06-29T23:37:56.645Z,20.87
2018-06-29T23:40:25.744Z,20.72
2018-06-29T23:42:54.865Z,20.68
2018-06-29T23:45:23.948Z,20.72
2018-06-29T23:47:53.077Z,20.72
2018-06-29T23:50:22.172Z,20.68
2018-06-29T23:52:51.297Z,20.68
2018-06-29T23:55:20.421Z,20.60
2018-06-29T23:57:49.530Z,20.54
